createdAt,value
2022-11-30T00:01:54.315Z,21.38
2022-11-30T00:04:21.343Z,21.60
2022-11-30T00:06:48.190Z,21.92
2022-11-30T00:09:15.513Z,22.20
2022-11-30T00:11:42.440Z,22.08
2022-11-30T00:14:09.668Z,21.85
2022-11-30T00:16:36.741Z,21.67
2022-11-30T00:19:06.744Z,22.27
2022-11-30T00:21:33.662Z,21.60
2022-11-30T00:24:00.757Z,20.92
2022-11-30T00:26:27.607Z,20.40
2022-11-30T00:28:54.739Z,21.02
2022-11-30T00:31:22.068Z,21.77
2022-11-30T00:33:51.874Z,20.15
2022-11-30T00:36:22.035Z,20.25
2022-11-30T00:38:50.927Z,21.08
2022-11-30T00:41:19.933Z,19.92
2022-11-30T00:43:47.202Z,20.00
2022-11-30T00:46:14.725Z,20.65
2022-11-30T00:48:42.234Z,19.17
2022-11-30T00:51:11.091Z,20.70
2022-11-30T00:53:39.304Z,19.13
2022-11-30T00:56:07.623Z,19.30
2022-11-30T00:58:34.804Z,20.17
2022-11-30T01:01:02.041Z,19.77
2022-11-30T01:03:28.981Z,19.60
2022-11-30T01:06:01.542Z,20.30
2022-11-30T01:08:28.687Z,18.95
2022-11-30T01:10:57.813Z,18.23
2022-11-30T01:13:24.992Z,19.17
2022-11-30T01:15:57.088Z,19.58
2022-11-30T01:18:41.745Z,18.75
2022-11-30T01:21:13.788Z,18.73
2022-11-30T01:23:41.217Z,18.38
2022-11-30T01:26:08.991Z,17.67
2022-11-30T01:28:36.507Z,18.27
2022-11-30T01:31:09.554Z,20.75
2022-11-30T01:33:39.197Z,19.27
2022-11-30T01:36:17.215Z,19.10
2022-11-30T01:38:51.094Z,18.38
2022-11-30T01:41:25.362Z,18.27
2022-11-30T01:46:37.122Z,17.73
2022-11-30T01:49:09.866Z,19.05
2022-11-30T01:51:49.581Z,18.70
2022-11-30T01:54:37.412Z,19.83
2022-11-30T01:57:31.070Z,19.27
2022-11-30T02:00:01.165Z,19.02
2022-11-30T02:03:11.399Z,19.88
2022-11-30T02:05:41.511Z,18.00
2022-11-30T02:08:11.875Z,17.52
2022-11-30T02:10:49.854Z,18.33
2022-11-30T02:13:22.232Z,19.40
2022-11-30T02:16:21.053Z,18.42
2022-11-30T02:19:39.749Z,17.33
2022-11-30T02:22:49.252Z,19.52
2022-11-30T02:25:34.533Z,18.85
2022-11-30T02:28:57.627Z,19.88
2022-11-30T02:31:35.017Z,17.92
2022-11-30T02:34:06.893Z,20.40
2022-11-30T02:36:33.838Z,19.33
2022-11-30T02:39:01.272Z,19.83
2022-11-30T02:41:38.168Z,20.17
2022-11-30T02:44:07.786Z,20.25
2022-11-30T02:47:01.427Z,21.52
2022-11-30T02:49:36.499Z,20.50
2022-11-30T02:52:05.342Z,21.13
2022-11-30T02:54:33.631Z,21.25
2022-11-30T02:57:03.011Z,23.00
2022-11-30T02:59:30.026Z,21.75
2022-11-30T03:01:57.539Z,20.58
2022-11-30T03:04:24.557Z,21.63
2022-11-30T03:06:51.445Z,22.67
2022-11-30T03:09:18.244Z,21.85
2022-11-30T03:11:45.068Z,22.48
2022-11-30T03:14:12.561Z,21.50
2022-11-30T03:16:39.370Z,21.98
2022-11-30T03:19:06.244Z,20.58
2022-11-30T03:21:33.109Z,21.15
2022-11-30T03:24:00.104Z,21.13
2022-11-30T03:26:27.004Z,19.75
2022-11-30T03:28:53.881Z,19.95
2022-11-30T03:31:20.903Z,20.95
2022-11-30T03:33:47.807Z,21.10
2022-11-30T03:36:14.692Z,21.75
2022-11-30T03:38:41.571Z,21.83
2022-11-30T03:41:14.202Z,21.75
2022-11-30T03:43:41.565Z,20.30
2022-11-30T03:46:08.695Z,20.27
2022-11-30T03:48:38.238Z,21.58
2022-11-30T03:51:05.685Z,22.88
2022-11-30T03:53:32.780Z,21.58
2022-11-30T03:56:04.645Z,20.88
2022-11-30T03:58:32.006Z,20.85
2022-11-30T04:01:04.715Z,22.05
2022-11-30T04:03:31.623Z,21.75
2022-11-30T04:05:59.345Z,22.67
2022-11-30T04:08:27.345Z,20.85
2022-11-30T04:10:55.934Z,22.67
2022-11-30T04:13:23.668Z,22.67
2022-11-30T04:15:52.770Z,22.98
2022-11-30T04:18:22.018Z,23.02
2022-11-30T04:20:53.946Z,23.38
2022-11-30T04:23:22.205Z,24.10
2022-11-30T04:25:49.421Z,23.55
2022-11-30T04:28:17.723Z,26.30
2022-11-30T04:30:45.863Z,25.25
2022-11-30T04:33:15.517Z,26.75
2022-11-30T04:35:57.384Z,24.35
2022-11-30T04:38:25.405Z,24.25
2022-11-30T04:40:52.578Z,24.65
2022-11-30T04:43:20.111Z,24.92
2022-11-30T04:45:47.642Z,24.65
2022-11-30T04:48:16.486Z,23.17
2022-11-30T04:50:43.563Z,23.83
2022-11-30T04:53:11.062Z,24.55
2022-11-30T04:55:39.111Z,24.77
2022-11-30T04:58:06.813Z,25.13
2022-11-30T05:00:34.907Z,24.35
2022-11-30T05:03:02.332Z,25.85
2022-11-30T05:05:29.347Z,25.73
2022-11-30T05:07:58.171Z,24.58
2022-11-30T05:10:26.594Z,27.77
2022-11-30T05:12:53.667Z,28.38
2022-11-30T05:15:20.843Z,27.05
2022-11-30T05:17:47.617Z,27.58
2022-11-30T05:20:14.447Z,28.20
2022-11-30T05:22:41.394Z,27.13
2022-11-30T05:25:09.425Z,27.92
2022-11-30T05:27:37.011Z,29.90
2022-11-30T05:30:05.574Z,28.25
2022-11-30T05:32:32.624Z,28.98
2022-11-30T05:34:59.722Z,29.52
2022-11-30T05:37:26.831Z,29.20
2022-11-30T05:39:54.003Z,31.52
2022-11-30T05:42:21.306Z,28.55
2022-11-30T05:44:57.642Z,27.85
2022-11-30T05:47:24.909Z,29.58
2022-11-30T05:49:51.756Z,29.35
2022-11-30T05:52:18.729Z,29.13
2022-11-30T05:54:45.969Z,27.17
2022-11-30T05:57:15.202Z,28.38
2022-11-30T05:59:42.511Z,28.40
2022-11-30T06:02:09.543Z,28.67
2022-11-30T06:04:36.582Z,27.75
2022-11-30T06:07:04.403Z,27.33
2022-11-30T06:09:31.266Z,28.80
2022-11-30T06:11:58.213Z,28.17
2022-11-30T06:14:25.083Z,27.23
2022-11-30T06:16:52.120Z,26.75
2022-11-30T06:19:19.049Z,26.55
2022-11-30T06:21:45.906Z,26.25
2022-11-30T06:24:12.858Z,27.85
2022-11-30T06:26:39.942Z,27.38
2022-11-30T06:29:06.905Z,28.23
2022-11-30T06:31:34.756Z,29.83
2022-11-30T06:34:01.825Z,27.77
2022-11-30T06:36:34.186Z,27.98
2022-11-30T06:39:03.272Z,29.23
2022-11-30T06:41:30.137Z,30.15
2022-11-30T06:43:57.289Z,28.65
2022-11-30T06:46:24.182Z,31.35
2022-11-30T06:48:51.081Z,30.58
2022-11-30T06:51:18.459Z,30.00
2022-11-30T06:53:46.100Z,30.33
2022-11-30T06:56:13.362Z,31.70
2022-11-30T06:58:40.880Z,31.58
2022-11-30T07:01:11.063Z,33.80
2022-11-30T07:03:38.893Z,33.20
2022-11-30T07:06:11.885Z,32.80
2022-11-30T07:08:39.386Z,32.63
2022-11-30T07:11:07.722Z,34.15
2022-11-30T07:13:34.986Z,33.17
2022-11-30T07:16:07.154Z,34.30
2022-11-30T07:18:35.086Z,33.83
2022-11-30T07:21:04.557Z,33.67
2022-11-30T07:23:55.912Z,34.50
2022-11-30T07:26:24.862Z,35.53
2022-11-30T07:28:58.243Z,36.63
2022-11-30T07:31:31.268Z,35.25
2022-11-30T07:34:04.791Z,34.33
2022-11-30T07:36:31.938Z,34.22
2022-11-30T07:38:58.954Z,36.45
2022-11-30T07:41:26.243Z,35.60
2022-11-30T07:43:53.360Z,34.63
2022-11-30T07:46:20.302Z,36.90
2022-11-30T07:48:47.409Z,35.58
2022-11-30T07:51:20.852Z,34.72
2022-11-30T07:53:48.729Z,37.60
2022-11-30T07:56:19.298Z,35.97
2022-11-30T07:58:48.085Z,35.45
2022-11-30T08:01:19.150Z,33.47
2022-11-30T08:03:46.308Z,33.10
2022-11-30T08:06:20.043Z,32.88
2022-11-30T08:08:49.583Z,33.97
2022-11-30T08:11:21.721Z,33.72
2022-11-30T08:13:48.641Z,33.75
2022-11-30T08:16:21.936Z,33.80
2022-11-30T08:18:49.533Z,26.50
2022-11-30T08:21:26.215Z,35.25
2022-11-30T08:24:13.745Z,34.08
2022-11-30T08:26:49.112Z,35.08
2022-11-30T08:29:31.878Z,35.03
2022-11-30T08:31:58.750Z,36.22
2022-11-30T08:34:26.682Z,34.35
2022-11-30T08:36:53.530Z,36.85
2022-11-30T08:39:20.797Z,34.42
2022-11-30T08:41:47.956Z,32.58
2022-11-30T08:44:20.768Z,36.22
2022-11-30T08:47:08.682Z,36.42
2022-11-30T08:52:22.072Z,35.42
2022-11-30T08:55:23.026Z,36.17
2022-11-30T08:57:59.425Z,36.35
2022-11-30T11:26:50.761Z,35.50
2022-11-30T11:29:35.656Z,36.75
2022-11-30T11:32:26.978Z,38.22
2022-11-30T11:34:54.202Z,36.22
2022-11-30T11:37:33.769Z,37.42
2022-11-30T11:40:17.450Z,38.17
2022-11-30T11:42:51.438Z,36.30
2022-11-30T11:45:27.497Z,37.05
2022-11-30T11:48:03.274Z,34.83
2022-11-30T11:51:05.423Z,37.80
2022-11-30T11:53:53.027Z,38.60
2022-11-30T11:56:26.723Z,37.28
2022-11-30T11:59:01.317Z,35.08
2022-11-30T12:02:14.137Z,37.95
2022-11-30T12:04:59.570Z,36.03
2022-11-30T12:07:53.383Z,37.42
2022-11-30T12:10:52.785Z,36.20
2022-11-30T12:13:23.921Z,35.85
2022-11-30T12:15:58.679Z,35.13
2022-11-30T12:18:57.115Z,37.78
2022-11-30T12:21:48.681Z,34.92
2022-11-30T12:24:49.455Z,34.15
2022-11-30T12:27:56.356Z,32.65
2022-11-30T12:31:14.850Z,31.08
2022-11-30T12:34:05.885Z,30.08
2022-11-30T12:36:51.409Z,30.00
2022-11-30T12:40:05.098Z,30.02
2022-11-30T12:42:51.201Z,27.75
2022-11-30T12:45:42.802Z,29.00
2022-11-30T12:48:24.749Z,26.98
2022-11-30T12:51:32.406Z,28.08
2022-11-30T12:54:46.868Z,27.50
2022-11-30T12:57:36.369Z,26.08
2022-11-30T13:00:17.579Z,26.25
2022-11-30T13:03:19.623Z,26.27
2022-11-30T13:06:37.852Z,24.80
2022-11-30T13:09:17.768Z,23.60
2022-11-30T13:12:07.409Z,23.90
2022-11-30T13:14:47.583Z,26.88
2022-11-30T13:17:22.939Z,26.70
2022-11-30T13:20:08.359Z,27.98
2022-11-30T13:22:59.035Z,28.88
2022-11-30T13:26:08.594Z,30.20
2022-11-30T13:28:46.767Z,31.83
2022-11-30T13:31:46.642Z,33.90
2022-11-30T13:34:32.832Z,33.97
2022-11-30T13:37:27.268Z,33.88
2022-11-30T13:40:11.187Z,33.40
2022-11-30T13:42:52.599Z,36.93
2022-11-30T13:45:54.043Z,34.20
2022-11-30T13:48:38.257Z,36.17
2022-11-30T13:51:10.112Z,36.65
2022-11-30T13:53:39.109Z,36.22
2022-11-30T13:56:19.683Z,36.85
2022-11-30T13:59:23.807Z,35.65
2022-11-30T14:01:52.871Z,34.95
2022-11-30T14:04:39.110Z,35.50
2022-11-30T14:07:37.707Z,34.92
2022-11-30T14:10:35.411Z,34.58
2022-11-30T14:13:07.489Z,35.75
2022-11-30T14:15:43.106Z,36.53
2022-11-30T14:18:10.028Z,35.13
2022-11-30T14:20:53.933Z,35.90
2022-11-30T14:23:41.210Z,26.63
2022-11-30T14:26:13.530Z,33.72
2022-11-30T14:28:50.745Z,34.15
2022-11-30T14:31:24.619Z,33.35
2022-11-30T14:34:26.630Z,32.90
2022-11-30T14:37:45.934Z,34.20
2022-11-30T14:40:21.894Z,32.78
2022-11-30T14:43:21.176Z,30.35
2022-11-30T14:46:10.222Z,32.53
2022-11-30T14:48:43.932Z,33.50
2022-11-30T14:51:11.234Z,33.30
2022-11-30T14:54:47.422Z,33.08
2022-11-30T14:57:38.770Z,32.67
2022-11-30T15:00:06.967Z,32.83
2022-11-30T15:02:38.728Z,32.88
2022-11-30T15:05:08.310Z,31.35
2022-11-30T15:07:38.624Z,31.77
2022-11-30T15:10:09.932Z,31.42
2022-11-30T15:12:39.504Z,29.88
2022-11-30T15:15:20.232Z,30.40
2022-11-30T15:17:57.022Z,28.75
2022-11-30T15:20:28.983Z,29.75
2022-11-30T15:23:00.267Z,27.90
2022-11-30T15:25:40.407Z,27.45
2022-11-30T15:28:09.294Z,26.85
2022-11-30T15:30:44.604Z,28.02
2022-11-30T15:33:22.712Z,27.52
2022-11-30T15:36:18.874Z,26.67
2022-11-30T15:41:23.223Z,23.75
2022-11-30T15:43:54.688Z,24.80
2022-11-30T15:46:46.189Z,25.30
2022-11-30T15:49:31.629Z,26.00
2022-11-30T15:52:04.216Z,25.52
2022-11-30T15:54:55.356Z,27.95
2022-11-30T15:57:38.792Z,27.40
2022-11-30T16:00:33.330Z,26.75
2022-11-30T16:03:14.092Z,27.20
2022-11-30T16:05:56.819Z,29.25
2022-11-30T16:08:31.992Z,28.58
2022-11-30T16:11:01.990Z,28.25
2022-11-30T16:16:00.900Z,24.08
2022-11-30T16:18:30.988Z,28.25
2022-11-30T16:21:00.794Z,27.88
2022-11-30T16:23:33.837Z,28.52
2022-11-30T16:26:00.960Z,30.73
2022-11-30T16:28:27.861Z,32.85
2022-11-30T16:30:59.977Z,34.17
2022-11-30T16:33:27.773Z,36.20
2022-11-30T16:36:01.292Z,39.15
2022-11-30T16:38:29.020Z,27.27
2022-11-30T16:40:56.347Z,39.65
2022-11-30T16:43:26.087Z,40.28
2022-11-30T16:45:52.977Z,42.08
2022-11-30T16:48:20.051Z,44.17
2022-11-30T16:50:47.108Z,43.88
2022-11-30T16:53:17.724Z,43.42
2022-11-30T16:55:44.548Z,43.35
2022-11-30T16:58:11.374Z,43.13
2022-11-30T17:00:40.141Z,41.95
2022-11-30T17:03:26.841Z,42.20
2022-11-30T17:05:53.611Z,42.70
2022-11-30T17:08:20.460Z,43.53
2022-11-30T17:10:52.653Z,41.17
2022-11-30T17:13:19.924Z,44.30
2022-11-30T17:15:47.303Z,43.25
2022-11-30T17:18:14.174Z,42.88
2022-11-30T17:20:51.902Z,43.03
2022-11-30T17:23:19.035Z,41.78
2022-11-30T17:25:47.311Z,41.28
2022-11-30T17:28:14.262Z,43.78
2022-11-30T17:30:54.164Z,43.17
2022-11-30T17:33:21.212Z,42.05
2022-11-30T17:35:48.159Z,43.15
2022-11-30T17:38:17.360Z,44.28
2022-11-30T17:40:45.294Z,43.20
2022-11-30T17:43:12.324Z,43.72
2022-11-30T17:45:40.445Z,40.20
2022-11-30T17:48:07.664Z,41.53
2022-11-30T17:50:34.871Z,41.65
2022-11-30T17:53:19.407Z,42.55
2022-11-30T17:55:46.877Z,42.03
2022-11-30T17:58:15.090Z,38.72
2022-11-30T18:00:42.048Z,41.83
2022-11-30T18:03:24.017Z,41.63
2022-11-30T18:05:51.221Z,38.60
2022-11-30T18:08:18.698Z,41.33
2022-11-30T18:14:08.217Z,40.67
2022-11-30T18:16:37.056Z,42.58
2022-11-30T18:19:12.309Z,42.08
2022-11-30T18:21:41.180Z,43.83
2022-11-30T18:24:10.193Z,44.40
2022-11-30T18:26:37.006Z,42.35
2022-11-30T18:29:03.962Z,44.63
2022-11-30T18:31:31.505Z,44.90
2022-11-30T18:34:02.019Z,46.55
2022-11-30T18:36:29.500Z,49.03
2022-11-30T18:38:56.788Z,48.13
2022-11-30T18:41:25.982Z,44.28
2022-11-30T18:43:53.724Z,44.17
2022-11-30T18:46:21.284Z,43.53
2022-11-30T18:48:53.024Z,41.38
2022-11-30T18:51:24.339Z,40.60
2022-11-30T18:54:01.352Z,42.10
2022-11-30T18:56:31.860Z,42.15
2022-11-30T18:59:02.865Z,40.55
2022-11-30T19:01:31.434Z,40.75
2022-11-30T19:04:05.226Z,42.72
2022-11-30T19:06:33.151Z,41.72
2022-11-30T19:09:02.765Z,41.58
2022-11-30T19:11:29.621Z,40.92
2022-11-30T19:13:58.514Z,42.10
2022-11-30T19:16:27.781Z,42.25
2022-11-30T19:18:56.064Z,42.35
2022-11-30T19:21:23.243Z,44.58
2022-11-30T19:23:50.520Z,43.53
2022-11-30T19:26:17.364Z,43.58
2022-11-30T19:28:45.128Z,44.28
2022-11-30T19:31:14.648Z,42.10
2022-11-30T19:33:44.968Z,43.10
2022-11-30T19:36:22.422Z,41.28
2022-11-30T19:38:51.351Z,44.20
2022-11-30T19:41:19.997Z,43.80
2022-11-30T19:43:53.927Z,43.97
2022-11-30T19:46:22.825Z,41.72
2022-11-30T19:48:55.382Z,44.25
2022-11-30T19:51:22.186Z,43.17
2022-11-30T19:53:55.309Z,41.92
2022-11-30T19:56:23.357Z,42.53
2022-11-30T19:58:50.602Z,42.33
2022-11-30T20:01:24.130Z,42.03
2022-11-30T20:03:53.513Z,41.72
2022-11-30T20:06:24.641Z,44.15
2022-11-30T20:08:51.654Z,43.45
2022-11-30T20:11:18.505Z,42.10
2022-11-30T20:13:45.947Z,44.88
2022-11-30T20:16:18.647Z,43.13
2022-11-30T20:18:51.908Z,42.30
2022-11-30T20:21:23.398Z,30.67
2022-11-30T20:23:51.280Z,41.30
2022-11-30T20:26:29.642Z,41.25
2022-11-30T20:28:57.684Z,38.67
2022-11-30T20:31:26.081Z,41.30
2022-11-30T20:33:53.033Z,40.40
2022-11-30T20:36:21.103Z,40.40
2022-11-30T20:38:48.595Z,39.83
2022-11-30T20:41:19.538Z,39.80
2022-11-30T20:43:47.377Z,39.72
2022-11-30T20:46:19.859Z,38.90
2022-11-30T20:48:47.330Z,38.42
2022-11-30T20:51:30.182Z,37.85
2022-11-30T20:54:04.124Z,38.50
2022-11-30T20:56:31.480Z,38.20
2022-11-30T20:59:02.434Z,36.28
2022-11-30T21:01:29.391Z,38.05
2022-11-30T21:03:56.383Z,39.03
2022-11-30T21:06:23.220Z,36.13
2022-11-30T21:08:50.058Z,38.25
2022-11-30T21:11:20.057Z,34.78
2022-11-30T21:13:49.756Z,36.92
2022-11-30T21:16:25.595Z,35.65
2022-11-30T21:18:54.880Z,36.28
2022-11-30T21:21:24.273Z,37.05
2022-11-30T21:23:51.957Z,35.50
2022-11-30T21:26:22.272Z,34.13
2022-11-30T21:28:53.077Z,34.50
2022-11-30T21:31:21.614Z,33.83
2022-11-30T21:33:53.176Z,35.38
2022-11-30T21:36:22.098Z,35.13
2022-11-30T21:39:04.388Z,35.72
2022-11-30T21:41:33.240Z,33.47
2022-11-30T21:44:00.226Z,35.00
2022-11-30T21:46:27.379Z,35.38
2022-11-30T21:48:54.279Z,34.42
2022-11-30T21:51:25.297Z,33.50
2022-11-30T21:53:55.740Z,34.67
2022-11-30T21:56:26.657Z,33.83
2022-11-30T21:58:53.514Z,36.45
2022-11-30T22:01:33.437Z,32.83
2022-11-30T22:04:01.903Z,35.33
2022-11-30T22:06:30.984Z,35.25
2022-11-30T22:09:07.673Z,36.33
2022-11-30T22:11:41.349Z,36.50
2022-11-30T22:14:13.192Z,35.20
2022-11-30T22:16:40.100Z,34.65
2022-11-30T22:19:07.185Z,35.03
2022-11-30T22:21:34.944Z,34.58
2022-11-30T22:24:05.367Z,37.53
2022-11-30T22:26:41.341Z,35.50
2022-11-30T22:29:17.043Z,35.28
2022-11-30T22:31:46.604Z,37.20
2022-11-30T22:34:13.861Z,35.30
2022-11-30T22:36:42.696Z,36.78
2022-11-30T22:39:19.242Z,36.40
2022-11-30T22:41:53.101Z,35.95
2022-11-30T22:44:22.616Z,34.67
2022-11-30T22:46:49.488Z,36.45
2022-11-30T22:49:21.296Z,34.72
2022-11-30T22:51:49.506Z,34.33
2022-11-30T22:54:16.575Z,36.15
2022-11-30T22:56:44.108Z,36.00
2022-11-30T22:59:13.338Z,35.63
2022-11-30T23:01:45.503Z,37.05
2022-11-30T23:04:16.139Z,35.65
2022-11-30T23:06:43.709Z,33.92
2022-11-30T23:09:17.769Z,35.88
2022-11-30T23:11:45.121Z,35.28
2022-11-30T23:14:12.433Z,36.88
2022-11-30T23:16:40.265Z,36.88
2022-11-30T23:19:07.687Z,36.17
2022-11-30T23:21:41.512Z,36.00
2022-11-30T23:26:48.158Z,34.75
2022-11-30T23:29:16.873Z,35.22
2022-11-30T23:31:45.268Z,38.10
2022-11-30T23:34:21.268Z,35.22
2022-11-30T23:36:49.328Z,37.05
2022-11-30T23:39:18.413Z,37.30
2022-11-30T23:41:45.674Z,37.45
2022-11-30T23:44:13.034Z,37.17
2022-11-30T23:46:40.498Z,39.35
2022-11-30T23:49:08.004Z,37.70
2022-11-30T23:51:35.046Z,35.67
2022-11-30T23:54:01.827Z,39.80
2022-11-30T23:56:28.610Z,37.13
2022-11-30T23:58:55.396Z,37.45
